createdAt,value
2018-09-27T00:00:18.173Z,46.42
2018-09-27T00:01:18.196Z,46.51
2018-09-27T00:02:18.216Z,46.33
2018-09-27T00:03:18.240Z,46.42
2018-09-27T00:04:18.271Z,46.51
2018-09-27T00:05:18.288Z,46.51
2018-09-27T00:06:18.311Z,46.51
2018-09-27T00:07:18.334Z,46.34
2018-09-27T00:08:18.359Z,46.61
2018-09-27T00:09:18.381Z,46.13
2018-09-27T00:10:18.404Z,46.61
2018-09-27T00:11:18.430Z,46.33
2018-09-27T00:12:18.452Z,46.33
2018-09-27T00:13:18.481Z,46.42
2018-09-27T00:14:18.501Z,46.42
2018-09-27T00:15:18.524Z,46.81
2018-09-27T00:16:18.548Z,46.42
2018-09-27T00:17:18.571Z,46.81
2018-09-27T00:18:18.598Z,47.09
2018-09-27T00:19:18.665Z,47.00
2018-09-27T00:20:18.644Z,47.09
2018-09-27T00:21:18.665Z,46.90
2018-09-27T00:22:18.690Z,47.09
2018-09-27T00:23:18.713Z,47.00
2018-09-27T00:24:18.742Z,47.00
2018-09-27T00:25:18.762Z,46.90
2018-09-27T00:26:18.784Z,46.81
2018-09-27T00:27:18.814Z,46.71
2018-09-27T00:28:18.833Z,46.90
2018-09-27T00:29:18.856Z,47.09
2018-09-27T00:30:18.882Z,47.29
2018-09-27T00:31:18.904Z,47.29
2018-09-27T00:32:18.927Z,47.09
2018-09-27T00:33:18.950Z,47.29
2018-09-27T00:34:18.981Z,47.09
2018-09-27T00:35:19.000Z,47.00
2018-09-27T00:36:19.027Z,46.90
2018-09-27T00:37:19.049Z,46.81
2018-09-27T00:38:19.071Z,47.00
2018-09-27T00:39:19.092Z,47.00
2018-09-27T00:40:19.120Z,47.09
2018-09-27T00:41:19.139Z,47.09
2018-09-27T00:42:19.165Z,47.00
2018-09-27T00:43:19.187Z,46.81
2018-09-27T00:44:19.210Z,47.19
2018-09-27T00:45:19.238Z,46.90
2018-09-27T00:46:19.260Z,46.90
2018-09-27T00:47:19.281Z,47.09
2018-09-27T00:48:19.306Z,47.09
2018-09-27T00:49:19.328Z,47.00
2018-09-27T00:50:19.354Z,47.00
2018-09-27T00:51:19.377Z,47.00
2018-09-27T00:52:19.400Z,47.00
2018-09-27T00:53:19.425Z,47.00
2018-09-27T00:54:19.454Z,47.19
2018-09-27T00:55:19.471Z,47.29
2018-09-27T00:56:19.497Z,47.09
2018-09-27T00:57:19.520Z,47.29
2018-09-27T00:58:19.547Z,47.19
2018-09-27T00:59:19.565Z,47.38
2018-09-27T01:00:19.594Z,47.29
2018-09-27T01:01:19.615Z,47.09
2018-09-27T01:02:19.636Z,47.09
2018-09-27T01:03:19.663Z,47.29
2018-09-27T01:04:19.688Z,47.29
2018-09-27T01:05:19.708Z,47.38
2018-09-27T01:06:19.730Z,47.29
2018-09-27T01:07:19.755Z,47.19
2018-09-27T01:08:19.780Z,47.19
2018-09-27T01:09:19.802Z,47.29
2018-09-27T01:10:19.827Z,47.48
2018-09-27T01:11:19.849Z,47.29
2018-09-27T01:12:19.873Z,47.58
2018-09-27T01:13:19.901Z,47.48
2018-09-27T01:14:19.925Z,47.29
2018-09-27T01:15:19.946Z,47.38
2018-09-27T01:16:19.968Z,47.29
2018-09-27T01:17:19.990Z,47.87
2018-09-27T01:18:20.015Z,47.96
2018-09-27T01:19:20.042Z,47.77
2018-09-27T01:20:20.065Z,47.67
2018-09-27T01:21:20.085Z,47.77
2018-09-27T01:22:20.109Z,47.96
2018-09-27T01:23:20.133Z,47.87
2018-09-27T01:24:20.157Z,48.06
2018-09-27T01:25:20.181Z,47.58
2018-09-27T01:26:20.205Z,47.96
2018-09-27T01:27:20.239Z,47.96
2018-09-27T01:28:20.252Z,47.96
2018-09-27T01:29:20.274Z,48.06
2018-09-27T01:30:20.299Z,48.06
2018-09-27T01:31:20.324Z,47.96
2018-09-27T01:32:20.346Z,47.96
2018-09-27T01:33:20.369Z,48.06
2018-09-27T01:34:20.394Z,47.77
2018-09-27T01:35:20.417Z,48.06
2018-09-27T01:36:20.442Z,48.06
2018-09-27T01:37:20.465Z,48.06
2018-09-27T01:38:20.487Z,47.96
2018-09-27T01:39:20.511Z,47.96
2018-09-27T01:40:20.537Z,47.96
2018-09-27T01:41:20.559Z,47.67
2018-09-27T01:42:20.582Z,47.96
2018-09-27T01:43:20.609Z,47.96
2018-09-27T01:44:20.630Z,47.96
2018-09-27T01:45:20.652Z,48.06
2018-09-27T01:46:20.678Z,47.87
2018-09-27T01:47:20.705Z,47.58
2018-09-27T01:48:20.727Z,48.06
2018-09-27T01:49:20.748Z,47.58
2018-09-27T01:50:20.773Z,47.87
2018-09-27T01:51:20.795Z,47.77
2018-09-27T01:52:20.820Z,47.67
2018-09-27T01:53:20.842Z,47.77
2018-09-27T01:54:20.865Z,47.96
2018-09-27T01:55:20.890Z,47.77
2018-09-27T01:56:20.914Z,48.06
2018-09-27T01:57:20.937Z,47.77
2018-09-27T01:58:21.008Z,47.77
2018-09-27T01:59:20.984Z,47.96
2018-09-27T02:00:21.008Z,47.77
2018-09-27T02:01:21.036Z,47.67
2018-09-27T02:02:21.056Z,47.77
2018-09-27T02:03:21.080Z,47.87
2018-09-27T02:04:21.104Z,47.87
2018-09-27T02:05:21.128Z,47.96
2018-09-27T02:06:21.148Z,47.77
2018-09-27T02:07:21.178Z,47.87
2018-09-27T02:08:21.200Z,47.67
2018-09-27T02:09:21.219Z,47.87
2018-09-27T02:10:21.244Z,47.77
2018-09-27T02:11:21.268Z,47.87
2018-09-27T02:12:21.292Z,47.96
2018-09-27T02:13:21.315Z,47.96
2018-09-27T02:14:21.341Z,47.96
2018-09-27T02:15:21.363Z,47.77
2018-09-27T02:16:21.388Z,47.87
2018-09-27T02:17:21.409Z,47.96
2018-09-27T02:18:21.431Z,47.67
2018-09-27T02:19:21.461Z,47.77
2018-09-27T02:20:21.484Z,47.77
2018-09-27T02:21:21.504Z,47.96
2018-09-27T02:22:21.528Z,47.67
2018-09-27T02:23:21.554Z,47.77
2018-09-27T02:24:21.576Z,47.96
2018-09-27T02:25:21.598Z,47.87
2018-09-27T02:26:21.627Z,47.77
2018-09-27T02:27:21.648Z,47.77
2018-09-27T02:28:21.671Z,47.87
2018-09-27T02:29:21.693Z,47.87
2018-09-27T02:30:21.721Z,47.77
2018-09-27T02:31:21.741Z,47.87
2018-09-27T02:32:21.768Z,47.87
2018-09-27T02:33:21.788Z,47.87
2018-09-27T02:34:21.813Z,47.58
2018-09-27T02:35:21.846Z,47.87
2018-09-27T02:36:21.863Z,47.87
2018-09-27T02:37:21.884Z,47.67
2018-09-27T02:38:21.907Z,47.67
2018-09-27T02:39:21.930Z,47.87
2018-09-27T02:40:21.954Z,47.77
2018-09-27T02:41:21.979Z,47.67
2018-09-27T02:42:22.000Z,47.67
2018-09-27T02:43:22.024Z,47.77
2018-09-27T02:44:22.054Z,47.77
2018-09-27T02:45:22.072Z,48.06
2018-09-27T02:46:22.096Z,48.06
2018-09-27T02:47:22.119Z,48.06
2018-09-27T02:48:22.143Z,47.38
2018-09-27T02:49:22.168Z,47.58
2018-09-27T02:50:22.191Z,47.67
2018-09-27T02:51:22.217Z,47.87
2018-09-27T02:52:22.238Z,47.67
2018-09-27T02:53:22.261Z,47.67
2018-09-27T02:54:22.286Z,47.77
2018-09-27T02:55:22.308Z,47.77
2018-09-27T02:56:22.334Z,47.67
2018-09-27T02:57:22.362Z,47.77
2018-09-27T02:58:22.379Z,47.67
2018-09-27T02:59:22.403Z,47.77
2018-09-27T03:00:22.429Z,47.87
2018-09-27T03:01:22.449Z,47.77
2018-09-27T03:02:22.473Z,47.77
2018-09-27T03:03:22.503Z,47.67
2018-09-27T03:04:22.520Z,47.67
2018-09-27T03:05:22.543Z,47.67
2018-09-27T03:06:22.568Z,47.58
2018-09-27T03:07:22.595Z,47.77
2018-09-27T03:08:22.615Z,47.77
2018-09-27T03:09:22.637Z,48.16
2018-09-27T03:10:22.664Z,47.77
2018-09-27T03:11:22.689Z,48.16
2018-09-27T03:12:22.709Z,47.77
2018-09-27T03:13:22.734Z,48.16
2018-09-27T03:14:22.756Z,47.87
2018-09-27T03:15:22.781Z,47.38
2018-09-27T03:16:22.804Z,47.58
2018-09-27T03:17:22.827Z,47.38
2018-09-27T03:18:22.856Z,47.58
2018-09-27T03:19:22.879Z,47.58
2018-09-27T03:20:22.899Z,47.58
2018-09-27T03:21:22.924Z,47.96
2018-09-27T03:22:22.945Z,47.38
2018-09-27T03:23:22.971Z,47.58
2018-09-27T03:24:22.995Z,47.96
2018-09-27T03:25:23.017Z,47.87
2018-09-27T03:26:23.039Z,47.77
2018-09-27T03:27:23.066Z,47.87
2018-09-27T03:28:23.087Z,47.58
2018-09-27T03:29:23.111Z,47.48
2018-09-27T03:30:23.135Z,47.58
2018-09-27T03:31:23.160Z,47.48
2018-09-27T03:32:23.183Z,47.77
2018-09-27T03:33:23.205Z,47.58
2018-09-27T03:34:23.232Z,47.58
2018-09-27T03:35:23.258Z,47.48
2018-09-27T03:36:23.276Z,47.48
2018-09-27T03:37:23.304Z,47.77
2018-09-27T03:38:23.323Z,47.58
2018-09-27T03:39:23.348Z,47.48
2018-09-27T03:40:23.436Z,47.48
2018-09-27T03:41:23.394Z,47.48
2018-09-27T03:42:23.419Z,47.77
2018-09-27T03:43:23.444Z,47.38
2018-09-27T03:44:23.466Z,47.77
2018-09-27T03:45:23.491Z,47.48
2018-09-27T03:46:23.514Z,47.58
2018-09-27T03:47:23.536Z,47.48
2018-09-27T03:48:23.562Z,47.77
2018-09-27T03:49:23.582Z,47.58
2018-09-27T03:50:23.608Z,47.67
2018-09-27T03:51:23.632Z,47.58
2018-09-27T03:52:23.654Z,47.48
2018-09-27T03:53:23.678Z,47.38
2018-09-27T03:54:23.700Z,47.77
2018-09-27T03:55:23.725Z,47.29
2018-09-27T03:56:23.749Z,47.87
2018-09-27T03:57:23.774Z,47.67
2018-09-27T03:58:23.796Z,47.67
2018-09-27T03:59:23.818Z,47.87
2018-09-27T04:00:23.842Z,47.87
2018-09-27T04:01:23.865Z,47.67
2018-09-27T04:02:23.889Z,47.77
2018-09-27T04:03:24.040Z,47.77
2018-09-27T04:04:23.940Z,48.06
2018-09-27T04:05:23.961Z,47.67
2018-09-27T04:06:23.983Z,47.87
2018-09-27T04:07:24.008Z,47.67
2018-09-27T04:08:24.031Z,47.87
2018-09-27T04:09:24.054Z,47.77
2018-09-27T04:10:24.078Z,47.87
2018-09-27T04:11:24.103Z,47.87
2018-09-27T04:12:24.126Z,47.87
2018-09-27T04:13:24.152Z,47.87
2018-09-27T04:14:24.173Z,48.06
2018-09-27T04:15:24.196Z,48.06
2018-09-27T04:16:24.219Z,48.06
2018-09-27T04:17:24.244Z,48.16
2018-09-27T04:18:24.266Z,48.06
2018-09-27T04:19:24.290Z,48.16
2018-09-27T04:20:24.344Z,48.06
2018-09-27T04:21:24.368Z,48.06
2018-09-27T04:22:24.361Z,48.16
2018-09-27T04:23:24.384Z,47.94
2018-09-27T04:24:24.409Z,47.96
2018-09-27T04:25:24.430Z,47.96
2018-09-27T04:26:24.454Z,48.06
2018-09-27T04:27:24.478Z,47.96
2018-09-27T04:28:24.506Z,48.16
2018-09-27T04:29:24.528Z,47.87
2018-09-27T04:30:24.550Z,48.06
2018-09-27T04:31:24.572Z,47.87
2018-09-27T04:32:24.600Z,48.06
2018-09-27T04:33:24.622Z,47.96
2018-09-27T04:34:24.644Z,48.03
2018-09-27T04:35:24.668Z,48.06
2018-09-27T04:36:24.691Z,47.96
2018-09-27T04:37:24.713Z,47.96
2018-09-27T04:38:24.739Z,48.16
2018-09-27T04:39:24.762Z,48.06
2018-09-27T04:40:24.786Z,48.06
2018-09-27T04:41:24.808Z,48.06
2018-09-27T04:42:24.831Z,47.96
2018-09-27T04:43:24.855Z,47.96
2018-09-27T04:44:24.880Z,47.77
2018-09-27T04:45:24.903Z,47.96
2018-09-27T04:46:24.926Z,48.16
2018-09-27T04:47:24.950Z,47.58
2018-09-27T04:48:24.976Z,47.58
2018-09-27T04:49:24.997Z,47.65
2018-09-27T04:50:25.022Z,47.94
2018-09-27T04:51:25.046Z,47.85
2018-09-27T04:52:25.070Z,47.29
2018-09-27T04:53:25.094Z,47.77
2018-09-27T04:54:25.127Z,47.55
2018-09-27T04:55:25.138Z,47.55
2018-09-27T04:56:25.164Z,47.58
2018-09-27T04:57:25.185Z,47.77
2018-09-27T04:58:25.209Z,47.48
2018-09-27T04:59:25.232Z,47.55
2018-09-27T05:00:25.256Z,47.48
2018-09-27T05:01:25.277Z,47.48
2018-09-27T05:02:25.302Z,47.77
2018-09-27T05:03:25.324Z,47.77
2018-09-27T05:04:25.350Z,47.67
2018-09-27T05:05:25.372Z,47.67
2018-09-27T05:06:25.444Z,47.96
2018-09-27T05:07:25.420Z,47.77
2018-09-27T05:08:25.447Z,47.77
2018-09-27T05:09:25.510Z,47.77
2018-09-27T05:10:25.490Z,47.96
2018-09-27T05:11:25.515Z,47.87
2018-09-27T05:12:25.538Z,47.67
2018-09-27T05:13:25.562Z,47.96
2018-09-27T05:14:25.591Z,47.87
2018-09-27T05:15:25.637Z,47.87
2018-09-27T05:16:25.634Z,47.77
2018-09-27T05:17:25.659Z,47.67
2018-09-27T05:18:25.680Z,47.77
2018-09-27T05:19:25.704Z,47.87
2018-09-27T05:20:25.757Z,47.87
2018-09-27T05:21:25.780Z,47.96
2018-09-27T05:22:25.773Z,47.67
2018-09-27T05:23:25.798Z,47.87
2018-09-27T05:24:25.824Z,47.77
2018-09-27T05:25:25.845Z,48.06
2018-09-27T05:26:25.871Z,47.58
2018-09-27T05:27:25.893Z,47.58
2018-09-27T05:28:25.916Z,47.77
2018-09-27T05:29:25.938Z,47.77
2018-09-27T05:30:25.961Z,47.77
2018-09-27T05:31:25.992Z,47.87
2018-09-27T05:32:26.012Z,47.96
2018-09-27T05:33:26.090Z,47.96
2018-09-27T05:34:26.056Z,46.83
2018-09-27T05:35:26.080Z,46.83
2018-09-27T05:36:26.104Z,46.34
2018-09-27T05:37:26.126Z,46.17
2018-09-27T05:38:26.154Z,45.33
2018-09-27T05:39:26.192Z,44.94
2018-09-27T05:40:26.199Z,44.75
2018-09-27T05:41:26.221Z,44.38
2018-09-27T05:42:26.244Z,44.19
2018-09-27T05:43:26.268Z,43.34
2018-09-27T05:44:26.296Z,43.05
2018-09-27T05:45:26.353Z,42.49
2018-09-27T05:46:26.340Z,42.40
2018-09-27T05:47:26.364Z,41.83
2018-09-27T05:48:26.389Z,42.03
2018-09-27T05:49:26.414Z,41.37
2018-09-27T05:50:26.435Z,40.79
2018-09-27T05:51:26.467Z,40.52
2018-09-27T05:52:26.482Z,40.52
2018-09-27T05:53:26.505Z,39.94
2018-09-27T05:54:26.534Z,40.05
2018-09-27T05:55:26.555Z,39.94
2018-09-27T05:56:26.579Z,40.59
2018-09-27T05:57:26.656Z,41.83
2018-09-27T05:58:26.629Z,41.82
2018-09-27T05:59:26.655Z,42.97
2018-09-27T06:00:26.680Z,42.96
2018-09-27T06:01:26.701Z,43.34
2018-09-27T06:02:26.726Z,43.92
2018-09-27T06:03:26.806Z,43.63
2018-09-27T06:04:26.782Z,44.21
2018-09-27T06:05:26.799Z,44.19
2018-09-27T06:06:26.825Z,44.29
2018-09-27T06:07:26.850Z,44.38
2018-09-27T06:08:26.875Z,44.29
2018-09-27T06:09:26.909Z,44.38
2018-09-27T06:10:26.924Z,44.96
2018-09-27T06:11:27.052Z,44.77
2018-09-27T06:12:26.974Z,44.87
2018-09-27T06:13:26.998Z,44.67
2018-09-27T06:14:27.023Z,44.96
2018-09-27T06:15:27.064Z,44.67
2018-09-27T06:16:27.076Z,44.48
2018-09-27T06:17:27.102Z,44.87
2018-09-27T06:18:27.124Z,45.16
2018-09-27T06:19:27.175Z,44.57
2018-09-27T06:20:27.173Z,45.45
2018-09-27T06:21:27.202Z,44.79
2018-09-27T06:22:27.222Z,43.58
2018-09-27T06:23:27.247Z,41.30
2018-09-27T06:24:27.274Z,39.98
2018-09-27T06:25:27.298Z,40.75
2018-09-27T06:26:27.323Z,40.75
2018-09-27T06:27:27.387Z,39.70
2018-09-27T06:28:27.372Z,38.01
2018-09-27T06:29:27.394Z,37.16
2018-09-27T06:30:27.421Z,37.52
2018-09-27T06:31:27.447Z,37.90
2018-09-27T06:32:27.472Z,37.82
2018-09-27T06:33:27.533Z,36.67
2018-09-27T06:34:27.523Z,37.04
2018-09-27T06:35:27.547Z,38.15
2018-09-27T06:36:27.573Z,39.69
2018-09-27T06:37:27.596Z,40.05
2018-09-27T06:38:27.644Z,40.44
2018-09-27T06:39:27.645Z,39.41
2018-09-27T06:40:27.672Z,38.65
2018-09-27T06:41:27.711Z,38.56
2018-09-27T06:42:27.721Z,37.90
2018-09-27T06:43:27.751Z,36.00
2018-09-27T06:44:27.791Z,34.76
2018-09-27T06:45:27.797Z,35.31
2018-09-27T06:46:27.828Z,36.46
2018-09-27T06:47:27.853Z,36.28
2018-09-27T06:48:27.922Z,35.25
2018-09-27T06:49:27.904Z,34.66
2018-09-27T06:50:27.966Z,35.31
2018-09-27T06:51:27.957Z,35.70
2018-09-27T06:52:27.981Z,35.15
2018-09-27T06:53:28.007Z,34.27
2018-09-27T06:54:28.035Z,34.64
2018-09-27T06:55:28.301Z,35.41
2018-09-27T06:56:28.090Z,35.25
2018-09-27T06:57:28.114Z,34.00
2018-09-27T06:58:28.137Z,33.80
2018-09-27T06:59:28.163Z,34.37
2018-09-27T07:00:28.195Z,35.03
2018-09-27T07:01:28.214Z,36.55
2018-09-27T07:02:28.304Z,37.39
2018-09-27T07:03:28.267Z,38.54
2018-09-27T07:04:28.295Z,39.29
2018-09-27T07:05:28.321Z,39.39
2018-09-27T07:06:28.346Z,40.25
2018-09-27T07:07:28.373Z,40.73
2018-09-27T07:08:28.462Z,40.91
2018-09-27T07:09:28.431Z,41.39
2018-09-27T07:10:28.451Z,41.97
2018-09-27T07:11:28.469Z,42.24
2018-09-27T07:12:28.640Z,41.95
2018-09-27T07:13:28.532Z,42.63
2018-09-27T07:14:28.570Z,42.54
2018-09-27T07:15:28.585Z,43.02
2018-09-27T07:16:28.608Z,43.19
2018-09-27T07:17:28.632Z,43.21
2018-09-27T07:18:28.657Z,43.02
2018-09-27T07:19:28.684Z,43.29
2018-09-27T07:20:28.717Z,43.38
2018-09-27T07:21:28.732Z,43.38
2018-09-27T07:22:28.764Z,43.77
2018-09-27T07:23:28.790Z,44.06
2018-09-27T07:24:28.811Z,44.26
2018-09-27T07:25:28.838Z,44.26
2018-09-27T07:26:28.881Z,43.87
2018-09-27T07:27:28.891Z,44.35
2018-09-27T07:28:28.915Z,44.13
2018-09-27T07:29:28.940Z,44.45
2018-09-27T07:30:28.963Z,44.33
2018-09-27T07:31:28.996Z,44.43
2018-09-27T07:32:29.060Z,44.23
2018-09-27T07:33:29.039Z,44.23
2018-09-27T07:34:29.067Z,44.23
2018-09-27T07:35:29.094Z,44.13
2018-09-27T07:36:29.121Z,44.33
2018-09-27T07:37:29.145Z,44.33
2018-09-27T07:38:29.173Z,44.43
2018-09-27T07:39:29.196Z,44.23
2018-09-27T07:40:29.222Z,44.23
2018-09-27T07:41:29.244Z,44.33
2018-09-27T07:42:29.269Z,44.72
2018-09-27T07:43:29.295Z,44.98
2018-09-27T07:44:29.344Z,44.89
2018-09-27T07:45:29.345Z,44.91
2018-09-27T07:46:29.368Z,44.70
2018-09-27T07:47:29.396Z,45.08
2018-09-27T07:48:29.560Z,45.18
2018-09-27T07:49:29.447Z,44.81
2018-09-27T07:50:29.492Z,45.37
2018-09-27T07:51:29.494Z,45.37
2018-09-27T07:52:29.520Z,45.28
2018-09-27T07:53:29.550Z,45.28
2018-09-27T07:54:29.721Z,45.98
2018-09-27T07:55:29.596Z,45.47
2018-09-27T07:56:29.646Z,45.28
2018-09-27T07:57:29.641Z,45.78
2018-09-27T07:58:29.665Z,45.68
2018-09-27T07:59:29.692Z,45.76
2018-09-27T08:00:29.716Z,45.66
2018-09-27T08:01:29.741Z,45.88
2018-09-27T08:02:29.822Z,46.08
2018-09-27T08:03:29.793Z,46.53
2018-09-27T08:04:29.818Z,46.05
2018-09-27T08:05:29.846Z,46.25
2018-09-27T08:06:29.868Z,46.63
2018-09-27T08:07:29.889Z,46.53
2018-09-27T08:08:29.949Z,46.73
2018-09-27T08:09:29.950Z,46.53
2018-09-27T08:10:29.966Z,46.63
2018-09-27T08:11:30.147Z,46.53
2018-09-27T08:12:30.019Z,46.44
2018-09-27T08:13:30.051Z,46.53
2018-09-27T08:14:30.074Z,46.44
2018-09-27T08:15:30.095Z,46.53
2018-09-27T08:16:30.114Z,47.31
2018-09-27T08:17:30.139Z,47.02
2018-09-27T08:18:30.164Z,47.04
2018-09-27T08:19:30.189Z,46.83
2018-09-27T08:20:30.245Z,47.02
2018-09-27T08:21:30.239Z,47.02
2018-09-27T08:22:30.263Z,47.02
2018-09-27T08:23:30.289Z,47.14
2018-09-27T08:24:30.315Z,47.11
2018-09-27T08:25:30.340Z,47.02
2018-09-27T08:26:30.381Z,47.02
2018-09-27T08:27:30.394Z,46.94
2018-09-27T08:28:30.412Z,47.04
2018-09-27T08:29:30.437Z,47.24
2018-09-27T08:30:30.467Z,46.94
2018-09-27T08:31:30.491Z,46.84
2018-09-27T08:32:30.568Z,47.04
2018-09-27T08:33:30.539Z,46.94
2018-09-27T08:34:30.566Z,47.14
2018-09-27T08:35:30.593Z,47.14
2018-09-27T08:36:31.483Z,46.94
2018-09-27T08:37:30.635Z,47.24
2018-09-27T08:38:30.690Z,47.14
2018-09-27T08:39:30.687Z,47.43
2018-09-27T08:40:30.713Z,48.18
2018-09-27T08:41:30.738Z,48.01
2018-09-27T08:42:30.765Z,47.91
2018-09-27T08:43:30.786Z,48.01
2018-09-27T08:44:30.934Z,48.27
2018-09-27T08:45:30.989Z,48.18
2018-09-27T08:46:30.860Z,48.18
2018-09-27T08:47:30.896Z,47.91
2018-09-27T08:48:30.915Z,47.79
2018-09-27T08:49:30.935Z,47.81
2018-09-27T08:50:30.966Z,47.79
2018-09-27T08:51:31.008Z,47.60
2018-09-27T08:52:31.017Z,47.69
2018-09-27T08:53:31.038Z,48.27
2018-09-27T08:54:31.064Z,48.01
2018-09-27T08:55:31.104Z,48.49
2018-09-27T08:56:31.158Z,48.27
2018-09-27T08:57:31.207Z,48.37
2018-09-27T08:58:31.170Z,48.27
2018-09-27T08:59:31.191Z,48.79
2018-09-27T09:00:31.212Z,48.97
2018-09-27T09:01:31.282Z,48.57
2018-09-27T09:02:31.264Z,48.86
2018-09-27T09:03:31.317Z,48.79
2018-09-27T09:04:31.318Z,48.79
2018-09-27T09:05:31.337Z,48.66
2018-09-27T09:06:31.359Z,48.66
2018-09-27T09:07:31.401Z,48.86
2018-09-27T09:08:31.413Z,48.47
2018-09-27T09:09:31.438Z,49.05
2018-09-27T09:10:31.461Z,48.79
2018-09-27T09:11:31.485Z,48.79
2018-09-27T09:12:31.519Z,48.97
2018-09-27T09:13:31.567Z,48.97
2018-09-27T09:14:31.560Z,49.07
2018-09-27T09:15:31.619Z,48.79
2018-09-27T09:16:31.613Z,48.97
2018-09-27T09:17:31.634Z,48.95
2018-09-27T09:18:31.657Z,48.95
2018-09-27T09:19:31.721Z,48.86
2018-09-27T09:20:31.712Z,48.88
2018-09-27T09:21:31.755Z,48.86
2018-09-27T09:22:31.756Z,48.86
2018-09-27T09:23:31.784Z,48.86
2018-09-27T09:24:31.830Z,48.95
2018-09-27T09:25:32.530Z,48.95
2018-09-27T09:26:31.858Z,48.95
2018-09-27T09:27:31.923Z,49.15
2018-09-27T09:28:31.937Z,49.24
2018-09-27T09:29:31.969Z,49.34
2018-09-27T09:30:31.958Z,49.63
2018-09-27T09:31:31.984Z,49.54
2018-09-27T09:32:32.017Z,49.73
2018-09-27T09:33:32.037Z,49.92
2018-09-27T09:34:32.057Z,49.73
2018-09-27T09:35:32.117Z,49.73
2018-09-27T09:36:32.109Z,49.73
2018-09-27T09:37:32.129Z,49.73
2018-09-27T09:38:32.157Z,49.73
2018-09-27T09:39:32.179Z,49.73
2018-09-27T09:40:32.206Z,49.73
2018-09-27T09:41:32.229Z,49.82
2018-09-27T09:42:32.253Z,49.82
2018-09-27T09:43:32.280Z,49.92
2018-09-27T09:44:32.305Z,49.54
2018-09-27T09:45:32.339Z,49.73
2018-09-27T09:46:32.354Z,49.63
2018-09-27T09:47:32.378Z,49.73
2018-09-27T09:48:32.404Z,49.63
2018-09-27T09:49:32.751Z,49.54
2018-09-27T09:50:32.453Z,49.63
2018-09-27T09:51:32.494Z,49.63
2018-09-27T09:52:32.506Z,49.73
2018-09-27T09:53:32.531Z,49.63
2018-09-27T09:54:32.550Z,49.63
2018-09-27T09:55:32.576Z,49.63
2018-09-27T09:56:32.605Z,49.82
2018-09-27T09:57:32.625Z,49.73
2018-09-27T09:58:32.652Z,50.31
2018-09-27T09:59:32.679Z,49.92
2018-09-27T10:00:32.701Z,50.12
2018-09-27T10:01:32.726Z,50.12
2018-09-27T10:02:32.814Z,50.12
2018-09-27T10:03:32.777Z,50.60
2018-09-27T10:04:32.803Z,50.89
2018-09-27T10:05:32.827Z,51.56
2018-09-27T10:06:33.315Z,51.86
2018-09-27T10:07:32.952Z,51.66
2018-09-27T10:08:32.901Z,51.47
2018-09-27T10:09:32.929Z,51.28
2018-09-27T10:10:32.950Z,51.28
2018-09-27T10:11:32.973Z,51.37
2018-09-27T10:12:33.005Z,51.37
2018-09-27T10:13:33.027Z,51.37
2018-09-27T10:14:33.048Z,51.47
2018-09-27T10:15:33.080Z,51.28
2018-09-27T10:16:33.114Z,51.47
2018-09-27T10:17:33.126Z,51.28
2018-09-27T10:18:33.153Z,51.18
2018-09-27T10:19:33.174Z,51.47
2018-09-27T10:20:33.200Z,51.18
2018-09-27T10:21:33.280Z,50.89
2018-09-27T10:22:34.286Z,51.28
2018-09-27T10:23:33.277Z,51.37
2018-09-27T10:24:33.297Z,51.37
2018-09-27T10:25:33.323Z,51.28
2018-09-27T10:26:33.357Z,51.56
2018-09-27T10:27:33.393Z,51.56
2018-09-27T10:28:33.399Z,51.95
2018-09-27T10:29:33.428Z,51.56
2018-09-27T10:30:33.449Z,51.47
2018-09-27T10:31:33.474Z,51.37
2018-09-27T10:32:33.500Z,51.95
2018-09-27T10:33:33.527Z,51.47
2018-09-27T10:34:33.566Z,51.47
2018-09-27T10:35:33.572Z,51.66
2018-09-27T10:36:33.597Z,51.66
2018-09-27T10:37:33.620Z,51.73
2018-09-27T10:38:33.648Z,51.37
2018-09-27T10:39:33.673Z,51.86
2018-09-27T10:40:33.698Z,51.86
2018-09-27T10:41:33.722Z,52.31
2018-09-27T10:42:33.747Z,52.24
2018-09-27T10:43:33.773Z,52.24
2018-09-27T10:44:33.800Z,52.34
2018-09-27T10:45:33.823Z,52.22
2018-09-27T10:46:33.850Z,52.24
2018-09-27T10:47:33.873Z,52.34
2018-09-27T10:48:33.900Z,52.22
2018-09-27T10:49:33.921Z,52.22
2018-09-27T10:50:33.954Z,52.31
2018-09-27T10:51:33.972Z,52.02
2018-09-27T10:52:33.998Z,52.02
2018-09-27T10:53:34.017Z,52.12
2018-09-27T10:54:34.047Z,52.22
2018-09-27T10:55:34.079Z,52.02
2018-09-27T10:56:34.098Z,52.12
2018-09-27T10:57:34.131Z,52.31
2018-09-27T10:58:34.147Z,51.86
2018-09-27T10:59:34.215Z,52.44
2018-09-27T11:00:34.197Z,52.31
2018-09-27T11:01:34.285Z,52.31
2018-09-27T11:02:34.335Z,52.22
2018-09-27T11:03:34.274Z,52.22
2018-09-27T11:04:34.303Z,51.83
2018-09-27T11:05:34.366Z,52.41
2018-09-27T11:06:34.346Z,52.12
2018-09-27T11:07:34.368Z,51.73
2018-09-27T11:08:34.395Z,52.51
2018-09-27T11:09:34.421Z,52.41
2018-09-27T11:10:34.448Z,51.64
2018-09-27T11:11:34.525Z,51.83
2018-09-27T11:12:34.496Z,52.02
2018-09-27T11:13:34.519Z,52.31
2018-09-27T11:14:34.592Z,52.82
2018-09-27T11:15:34.618Z,52.34
2018-09-27T11:16:34.632Z,52.70
2018-09-27T11:17:34.620Z,52.63
2018-09-27T11:18:34.834Z,52.53
2018-09-27T11:19:34.673Z,52.63
2018-09-27T11:20:34.712Z,53.28
2018-09-27T11:21:34.720Z,53.67
2018-09-27T11:22:34.745Z,54.05
2018-09-27T11:23:34.769Z,54.15
2018-09-27T11:24:34.799Z,54.15
2018-09-27T11:25:34.816Z,54.05
2018-09-27T11:26:34.847Z,54.05
2018-09-27T11:27:34.915Z,54.25
2018-09-27T11:28:34.894Z,54.44
2018-09-27T11:29:34.925Z,54.44
2018-09-27T11:30:34.944Z,54.15
2018-09-27T11:31:34.969Z,54.05
2018-09-27T11:32:34.993Z,54.44
2018-09-27T11:33:35.020Z,54.53
2018-09-27T11:34:35.047Z,54.83
2018-09-27T11:35:35.068Z,54.93
2018-09-27T11:36:35.091Z,55.02
2018-09-27T11:37:35.120Z,55.11
2018-09-27T11:38:35.214Z,55.11
2018-09-27T11:39:35.171Z,55.31
2018-09-27T11:40:35.191Z,55.11
2018-09-27T11:41:35.217Z,55.11
2018-09-27T11:42:35.288Z,55.11
2018-09-27T11:43:35.267Z,55.02
2018-09-27T11:44:35.292Z,54.63
2018-09-27T11:45:35.318Z,55.21
2018-09-27T11:46:35.347Z,55.11
2018-09-27T11:47:35.367Z,55.41
2018-09-27T11:48:35.392Z,55.51
2018-09-27T11:49:35.536Z,55.41
2018-09-27T11:50:35.442Z,55.41
2018-09-27T11:51:35.467Z,55.31
2018-09-27T11:52:35.492Z,55.31
2018-09-27T11:53:35.520Z,55.70
2018-09-27T11:54:35.538Z,55.51
2018-09-27T11:55:35.564Z,55.41
2018-09-27T11:56:35.588Z,55.41
2018-09-27T11:57:35.616Z,54.93
2018-09-27T11:58:35.645Z,55.41
2018-09-27T11:59:35.671Z,55.51
2018-09-27T12:00:35.710Z,55.11
2018-09-27T12:01:35.805Z,55.31
2018-09-27T12:02:35.742Z,55.41
2018-09-27T12:03:35.768Z,54.93
2018-09-27T12:04:35.799Z,55.02
2018-09-27T12:05:35.815Z,54.83
2018-09-27T12:06:35.899Z,55.02
2018-09-27T12:07:35.940Z,54.63
2018-09-27T12:08:35.888Z,55.11
2018-09-27T12:09:35.913Z,55.02
2018-09-27T12:10:35.937Z,54.63
2018-09-27T12:11:35.970Z,55.02
2018-09-27T12:12:35.988Z,54.83
2018-09-27T12:13:36.018Z,55.11
2018-09-27T12:14:36.050Z,54.93
2018-09-27T12:15:36.063Z,55.41
2018-09-27T12:16:36.120Z,55.31
2018-09-27T12:17:36.188Z,55.21
2018-09-27T12:18:36.136Z,55.11
2018-09-27T12:19:36.204Z,55.31
2018-09-27T12:20:36.185Z,55.21
2018-09-27T12:21:36.212Z,55.11
2018-09-27T12:22:36.238Z,55.11
2018-09-27T12:23:36.260Z,55.11
2018-09-27T12:24:36.309Z,55.02
2018-09-27T12:25:36.316Z,55.31
2018-09-27T12:26:36.337Z,54.93
2018-09-27T12:27:36.373Z,55.41
2018-09-27T12:28:36.394Z,55.70
2018-09-27T12:29:36.409Z,55.51
2018-09-27T12:30:36.434Z,55.31
2018-09-27T12:31:36.462Z,55.41
2018-09-27T12:32:36.478Z,55.21
2018-09-27T12:33:36.506Z,55.41
2018-09-27T12:34:36.530Z,55.41
2018-09-27T12:35:36.558Z,55.60
2018-09-27T12:36:36.618Z,55.41
2018-09-27T12:37:36.606Z,55.31
2018-09-27T12:38:36.656Z,55.41
2018-09-27T12:39:36.726Z,55.21
2018-09-27T12:40:36.712Z,55.70
2018-09-27T12:41:36.803Z,55.60
2018-09-27T12:42:36.816Z,55.70
2018-09-27T12:43:36.764Z,55.60
2018-09-27T12:44:36.784Z,55.89
2018-09-27T12:45:36.901Z,55.89
2018-09-27T12:46:36.885Z,55.99
2018-09-27T12:47:36.856Z,55.51
2018-09-27T12:48:36.984Z,55.70
2018-09-27T12:49:36.907Z,55.51
2018-09-27T12:50:36.984Z,55.89
2018-09-27T12:51:37.039Z,55.89
2018-09-27T12:52:37.060Z,55.41